sensor_id;sensor_type;location;lat;lon;timestamp;pressure;altitude;pressure_sealevel;temperature;humidity
40992;BME280;29633;49.168;9.848;2023-07-13T00:00:13;96786.22;;;25.18;53.58
40992;BME280;29633;49.168;9.848;2023-07-13T00:02:42;96789.09;;;25.17;53.57
40992;BME280;29633;49.168;9.848;2023-07-13T00:05:08;96779.50;;;25.16;53.58
40992;BME280;29633;49.168;9.848;2023-07-13T00:07:34;96779.75;;;25.08;53.42
40992;BME280;29633;49.168;9.848;2023-07-13T00:10:00;96774.50;;;25.01;53.68
40992;BME280;29633;49.168;9.848;2023-07-13T00:12:29;96766.78;;;25.00;53.63
40992;BME280;29633;49.168;9.848;2023-07-13T00:15:00;96763.13;;;24.94;53.82
40992;BME280;29633;49.168;9.848;2023-07-13T00:17:27;96775.59;;;24.87;53.77
40992;BME280;29633;49.168;9.848;2023-07-13T00:19:53;96767.28;;;24.77;53.97
40992;BME280;29633;49.168;9.848;2023-07-13T00:22:21;96768.72;;;24.73;53.76
40992;BME280;29633;49.168;9.848;2023-07-13T00:24:47;96768.53;;;24.68;53.72
40992;BME280;29633;49.168;9.848;2023-07-13T00:27:14;96757.53;;;24.64;53.90
40992;BME280;29633;49.168;9.848;2023-07-13T00:29:39;96758.38;;;24.58;54.10
40992;BME280;29633;49.168;9.848;2023-07-13T00:32:06;96762.88;;;24.58;53.99
40992;BME280;29633;49.168;9.848;2023-07-13T00:34:32;96757.41;;;24.53;54.04
40992;BME280;29633;49.168;9.848;2023-07-13T00:36:58;96757.81;;;24.49;53.93
40992;BME280;29633;49.168;9.848;2023-07-13T00:39:25;96764.78;;;24.44;53.98
40992;BME280;29633;49.168;9.848;2023-07-13T00:41:50;96776.63;;;24.41;54.05
40992;BME280;29633;49.168;9.848;2023-07-13T00:44:18;96781.91;;;24.41;53.67
40992;BME280;29633;49.168;9.848;2023-07-13T00:46:44;96776.00;;;24.39;54.11
40992;BME280;29633;49.168;9.848;2023-07-13T00:49:13;96783.13;;;24.39;54.10
40992;BME280;29633;49.168;9.848;2023-07-13T00:51:43;96783.94;;;24.39;53.86
40992;BME280;29633;49.168;9.848;2023-07-13T00:54:13;96785.38;;;24.35;53.91
40992;BME280;29633;49.168;9.848;2023-07-13T00:56:41;96777.00;;;24.38;53.92
40992;BME280;29633;49.168;9.848;2023-07-13T00:59:07;96781.28;;;24.39;54.09
40992;BME280;29633;49.168;9.848;2023-07-13T01:01:33;96785.19;;;24.37;54.06
40992;BME280;29633;49.168;9.848;2023-07-13T01:03:59;96781.72;;;24.36;54.02
40992;BME280;29633;49.168;9.848;2023-07-13T01:06:25;96786.63;;;24.33;53.96
40992;BME280;29633;49.168;9.848;2023-07-13T01:08:50;96789.47;;;24.31;54.20
40992;BME280;29633;49.168;9.848;2023-07-13T01:11:21;96784.56;;;24.35;53.82
40992;BME280;29633;49.168;9.848;2023-07-13T01:13:47;96798.44;;;24.37;53.88
40992;BME280;29633;49.168;9.848;2023-07-13T01:16:25;96794.97;;;24.36;53.95
40992;BME280;29633;49.168;9.848;2023-07-13T01:18:51;96798.22;;;24.38;54.05
40992;BME280;29633;49.168;9.848;2023-07-13T01:21:17;96788.66;;;24.37;53.80
40992;BME280;29633;49.168;9.848;2023-07-13T01:23:44;96792.72;;;24.40;54.08
40992;BME280;29633;49.168;9.848;2023-07-13T01:26:10;96803.50;;;24.38;53.88
40992;BME280;29633;49.168;9.848;2023-07-13T01:28:37;96795.16;;;24.35;53.76
40992;BME280;29633;49.168;9.848;2023-07-13T01:31:03;96795.97;;;24.35;53.90
40992;BME280;29633;49.168;9.848;2023-07-13T01:33:29;96787.22;;;24.35;54.06
40992;BME280;29633;49.168;9.848;2023-07-13T01:35:54;96794.97;;;24.36;53.97
40992;BME280;29633;49.168;9.848;2023-07-13T01:38:23;96800.28;;;24.36;53.90
40992;BME280;29633;49.168;9.848;2023-07-13T01:40:51;96806.59;;;24.35;53.84
40992;BME280;29633;49.168;9.848;2023-07-13T01:43:17;96806.19;;;24.32;54.13
40992;BME280;29633;49.168;9.848;2023-07-13T01:45:42;96807.81;;;24.33;53.82
40992;BME280;29633;49.168;9.848;2023-07-13T01:48:09;96806.00;;;24.33;54.00
40992;BME280;29633;49.168;9.848;2023-07-13T01:50:35;96815.56;;;24.34;53.83
40992;BME280;29633;49.168;9.848;2023-07-13T01:53:02;96810.66;;;24.31;54.14
40992;BME280;29633;49.168;9.848;2023-07-13T01:55:28;96817.19;;;24.29;53.78
40992;BME280;29633;49.168;9.848;2023-07-13T01:57:54;96820.03;;;24.27;54.21
40992;BME280;29633;49.168;9.848;2023-07-13T02:00:20;96816.00;;;24.25;54.34
40992;BME280;29633;49.168;9.848;2023-07-13T02:02:45;96813.94;;;24.20;54.23
40992;BME280;29633;49.168;9.848;2023-07-13T02:05:12;96815.19;;;24.18;54.11
40992;BME280;29633;49.168;9.848;2023-07-13T02:07:38;96816.44;;;24.15;54.15
40992;BME280;29633;49.168;9.848;2023-07-13T02:10:05;96812.72;;;24.10;54.48
40992;BME280;29633;49.168;9.848;2023-07-13T02:12:31;96810.50;;;24.00;54.20
40992;BME280;29633;49.168;9.848;2023-07-13T02:14:56;96811.53;;;23.92;54.45
40992;BME280;29633;49.168;9.848;2023-07-13T02:17:22;96811.53;;;23.86;54.61
40992;BME280;29633;49.168;9.848;2023-07-13T02:19:48;96807.09;;;23.80;54.41
40992;BME280;29633;49.168;9.848;2023-07-13T02:22:13;96812.97;;;23.75;54.37
40992;BME280;29633;49.168;9.848;2023-07-13T02:24:39;96811.75;;;23.71;54.50
40992;BME280;29633;49.168;9.848;2023-07-13T02:27:05;96816.47;;;23.69;54.62
40992;BME280;29633;49.168;9.848;2023-07-13T02:29:31;96804.22;;;23.62;54.56
40992;BME280;29633;49.168;9.848;2023-07-13T02:31:56;96806.66;;;23.50;55.01
40992;BME280;29633;49.168;9.848;2023-07-13T02:34:22;96804.41;;;23.40;55.00
40992;BME280;29633;49.168;9.848;2023-07-13T02:36:48;96813.13;;;23.34;54.57
40992;BME280;29633;49.168;9.848;2023-07-13T02:39:13;96811.50;;;23.27;55.11
40992;BME280;29633;49.168;9.848;2023-07-13T02:41:39;96810.88;;;23.18;55.41
40992;BME280;29633;49.168;9.848;2023-07-13T02:46:31;96820.00;;;23.09;54.96
40992;BME280;29633;49.168;9.848;2023-07-13T02:48:57;96827.75;;;23.04;54.85
40992;BME280;29633;49.168;9.848;2023-07-13T02:51:23;96828.31;;;22.99;55.20
40992;BME280;29633;49.168;9.848;2023-07-13T02:53:48;96832.56;;;22.94;55.15
40992;BME280;29633;49.168;9.848;2023-07-13T02:56:14;96830.91;;;22.86;55.15
40992;BME280;29633;49.168;9.848;2023-07-13T02:58:40;96837.41;;;22.84;55.00
40992;BME280;29633;49.168;9.848;2023-07-13T03:01:07;96831.09;;;22.78;55.10
40992;BME280;29633;49.168;9.848;2023-07-13T03:03:33;96834.16;;;22.75;54.87
40992;BME280;29633;49.168;9.848;2023-07-13T03:06:00;96841.84;;;22.70;54.98
40992;BME280;29633;49.168;9.848;2023-07-13T03:08:27;96835.13;;;22.68;55.25
40992;BME280;29633;49.168;9.848;2023-07-13T03:11:22;96834.47;;;22.66;54.83
40992;BME280;29633;49.168;9.848;2023-07-13T03:13:48;96840.34;;;22.61;55.04
40992;BME280;29633;49.168;9.848;2023-07-13T03:16:14;96837.09;;;22.59;55.23
40992;BME280;29633;49.168;9.848;2023-07-13T03:18:41;96841.34;;;22.53;55.11
40992;BME280;29633;49.168;9.848;2023-07-13T03:21:07;96845.38;;;22.49;55.02
40992;BME280;29633;49.168;9.848;2023-07-13T03:23:33;96846.78;;;22.45;55.10
40992;BME280;29633;49.168;9.848;2023-07-13T03:26:10;96849.81;;;22.42;55.28
40992;BME280;29633;49.168;9.848;2023-07-13T03:28:37;96852.81;;;22.39;55.15
40992;BME280;29633;49.168;9.848;2023-07-13T03:31:08;96851.22;;;22.38;55.05
40992;BME280;29633;49.168;9.848;2023-07-13T03:33:34;96854.25;;;22.35;55.33
40992;BME280;29633;49.168;9.848;2023-07-13T03:35:59;96868.47;;;22.34;55.06
40992;BME280;29633;49.168;9.848;2023-07-13T03:38:25;96867.81;;;22.32;55.51
40992;BME280;29633;49.168;9.848;2023-07-13T03:40:52;96873.50;;;22.29;55.38
40992;BME280;29633;49.168;9.848;2023-07-13T03:43:18;96867.59;;;22.27;55.42
40992;BME280;29633;49.168;9.848;2023-07-13T03:45:43;96876.09;;;22.23;55.56
40992;BME280;29633;49.168;9.848;2023-07-13T03:48:09;96879.94;;;22.20;55.34
40992;BME280;29633;49.168;9.848;2023-07-13T03:50:35;96876.66;;;22.18;55.24
40992;BME280;29633;49.168;9.848;2023-07-13T03:53:00;96889.25;;;22.16;55.46
40992;BME280;29633;49.168;9.848;2023-07-13T03:55:26;96879.69;;;22.15;55.66
40992;BME280;29633;49.168;9.848;2023-07-13T03:58:01;96881.72;;;22.13;55.37
40992;BME280;29633;49.168;9.848;2023-07-13T04:00:26;96890.66;;;22.12;55.40
40992;BME280;29633;49.168;9.848;2023-07-13T04:02:52;96888.19;;;22.11;55.49
40992;BME280;29633;49.168;9.848;2023-07-13T04:05:17;96888.41;;;22.09;55.48
40992;BME280;29633;49.168;9.848;2023-07-13T04:07:44;96900.97;;;22.07;55.68
40992;BME280;29633;49.168;9.848;2023-07-13T04:10:09;96894.69;;;22.08;55.51
40992;BME280;29633;49.168;9.848;2023-07-13T04:12:35;96904.25;;;22.09;55.62
40992;BME280;29633;49.168;9.848;2023-07-13T04:15:01;96906.50;;;22.12;55.68
40992;BME280;29633;49.168;9.848;2023-07-13T04:17:27;96900.00;;;22.15;55.53
40992;BME280;29633;49.168;9.848;2023-07-13T04:19:52;96904.28;;;22.16;55.53
40992;BME280;29633;49.168;9.848;2023-07-13T04:22:18;96905.72;;;22.18;55.41
40992;BME280;29633;49.168;9.848;2023-07-13T04:24:44;96909.75;;;22.14;55.43
40992;BME280;29633;49.168;9.848;2023-07-13T04:27:09;96910.97;;;22.12;55.38
40992;BME280;29633;49.168;9.848;2023-07-13T04:29:35;96919.53;;;22.14;55.60
40992;BME280;29633;49.168;9.848;2023-07-13T04:32:01;96918.88;;;22.12;55.64
40992;BME280;29633;49.168;9.848;2023-07-13T04:34:26;96915.41;;;22.11;55.59
40992;BME280;29633;49.168;9.848;2023-07-13T04:36:52;96913.41;;;22.13;55.64
40992;BME280;29633;49.168;9.848;2023-07-13T04:39:18;96920.31;;;22.14;55.90
40992;BME280;29633;49.168;9.848;2023-07-13T04:41:43;96917.06;;;22.12;55.57
40992;BME280;29633;49.168;9.848;2023-07-13T04:44:09;96923.13;;;22.06;56.10
40992;BME280;29633;49.168;9.848;2023-07-13T04:46:34;96917.44;;;22.09;55.73
40992;BME280;29633;49.168;9.848;2023-07-13T04:49:00;96914.41;;;22.12;55.87
40992;BME280;29633;49.168;9.848;2023-07-13T04:51:26;96919.13;;;22.17;55.98
40992;BME280;29633;49.168;9.848;2023-07-13T04:53:52;96913.25;;;22.21;55.87
40992;BME280;29633;49.168;9.848;2023-07-13T04:56:17;96915.53;;;22.24;55.75
40992;BME280;29633;49.168;9.848;2023-07-13T04:58:45;96910.25;;;22.24;55.92
40992;BME280;29633;49.168;9.848;2023-07-13T05:01:10;96913.13;;;22.29;55.77
40992;BME280;29633;49.168;9.848;2023-07-13T05:03:36;96913.50;;;22.26;55.97
40992;BME280;29633;49.168;9.848;2023-07-13T05:06:06;96922.25;;;22.27;55.65
40992;BME280;29633;49.168;9.848;2023-07-13T05:08:32;96917.78;;;22.27;55.95
40992;BME280;29633;49.168;9.848;2023-07-13T05:11:03;96916.97;;;22.27;55.83
40992;BME280;29633;49.168;9.848;2023-07-13T05:13:28;96913.94;;;22.30;55.89
40992;BME280;29633;49.168;9.848;2023-07-13T05:15:56;96921.72;;;22.38;56.03
40992;BME280;29633;49.168;9.848;2023-07-13T05:18:22;96912.19;;;22.43;55.60
40992;BME280;29633;49.168;9.848;2023-07-13T05:20:56;96917.53;;;22.50;55.63
40992;BME280;29633;49.168;9.848;2023-07-13T05:23:24;96916.72;;;22.49;55.73
40992;BME280;29633;49.168;9.848;2023-07-13T05:25:50;96920.19;;;22.50;56.17
40992;BME280;29633;49.168;9.848;2023-07-13T05:28:16;96924.00;;;22.47;55.90
40992;BME280;29633;49.168;9.848;2023-07-13T05:30:46;96925.47;;;22.50;55.88
40992;BME280;29633;49.168;9.848;2023-07-13T05:33:12;96927.13;;;22.57;55.96
40992;BME280;29633;49.168;9.848;2023-07-13T05:35:38;96929.75;;;22.57;56.04
40992;BME280;29633;49.168;9.848;2023-07-13T05:38:03;96932.25;;;22.66;55.96
40992;BME280;29633;49.168;9.848;2023-07-13T05:40:29;96926.84;;;22.74;56.14
40992;BME280;29633;49.168;9.848;2023-07-13T05:42:55;96931.94;;;22.75;55.75
40992;BME280;29633;49.168;9.848;2023-07-13T05:45:20;96925.88;;;22.81;56.08
40992;BME280;29633;49.168;9.848;2023-07-13T05:47:46;96923.25;;;22.88;55.76
40992;BME280;29633;49.168;9.848;2023-07-13T05:50:11;96931.19;;;22.88;56.11
40992;BME280;29633;49.168;9.848;2023-07-13T05:52:37;96935.66;;;22.87;55.86
40992;BME280;29633;49.168;9.848;2023-07-13T05:55:03;96932.63;;;22.90;56.03
40992;BME280;29633;49.168;9.848;2023-07-13T05:57:30;96932.81;;;22.89;56.11
40992;BME280;29633;49.168;9.848;2023-07-13T05:59:55;96930.59;;;22.92;55.86
40992;BME280;29633;49.168;9.848;2023-07-13T06:02:21;96946.47;;;22.92;56.07
40992;BME280;29633;49.168;9.848;2023-07-13T06:04:47;96942.03;;;22.99;55.90
40992;BME280;29633;49.168;9.848;2023-07-13T06:07:12;96943.84;;;22.99;55.98
40992;BME280;29633;49.168;9.848;2023-07-13T06:09:38;96941.63;;;23.02;56.24
40992;BME280;29633;49.168;9.848;2023-07-13T06:12:04;96946.13;;;23.09;56.12
40992;BME280;29633;49.168;9.848;2023-07-13T06:14:30;96946.13;;;23.15;56.11
40992;BME280;29633;49.168;9.848;2023-07-13T06:16:56;96942.91;;;23.20;55.76
40992;BME280;29633;49.168;9.848;2023-07-13T06:19:21;96949.66;;;23.22;56.00
40992;BME280;29633;49.168;9.848;2023-07-13T06:21:47;96946.00;;;23.30;55.82
40992;BME280;29633;49.168;9.848;2023-07-13T06:24:12;96950.28;;;23.31;55.81
40992;BME280;29633;49.168;9.848;2023-07-13T06:26:38;96951.94;;;23.38;55.73
40992;BME280;29633;49.168;9.848;2023-07-13T06:29:04;96958.03;;;23.39;55.90
40992;BME280;29633;49.168;9.848;2023-07-13T06:31:30;96960.50;;;23.40;55.63
40992;BME280;29633;49.168;9.848;2023-07-13T06:33:57;96952.75;;;23.39;55.67
40992;BME280;29633;49.168;9.848;2023-07-13T06:36:22;96959.88;;;23.38;55.96
40992;BME280;29633;49.168;9.848;2023-07-13T06:38:48;96960.13;;;23.43;55.89
40992;BME280;29633;49.168;9.848;2023-07-13T06:41:14;96961.50;;;23.39;56.05
40992;BME280;29633;49.168;9.848;2023-07-13T06:43:39;96963.78;;;23.42;55.94
40992;BME280;29633;49.168;9.848;2023-07-13T06:46:05;96965.63;;;23.48;55.95
40992;BME280;29633;49.168;9.848;2023-07-13T06:48:31;96963.00;;;23.55;55.96
40992;BME280;29633;49.168;9.848;2023-07-13T06:50:57;96965.06;;;23.60;55.50
40992;BME280;29633;49.168;9.848;2023-07-13T06:53:23;96971.00;;;23.68;55.50
40992;BME280;29633;49.168;9.848;2023-07-13T06:55:49;96972.41;;;23.71;55.79
40992;BME280;29633;49.168;9.848;2023-07-13T06:58:16;96972.00;;;23.74;55.87
40992;BME280;29633;49.168;9.848;2023-07-13T07:00:43;96974.66;;;23.80;55.55
40992;BME280;29633;49.168;9.848;2023-07-13T07:03:08;96980.38;;;23.84;55.61
40992;BME280;29633;49.168;9.848;2023-07-13T07:05:34;96984.25;;;23.88;55.78
40992;BME280;29633;49.168;9.848;2023-07-13T07:08:00;96986.31;;;23.99;55.49
40992;BME280;29633;49.168;9.848;2023-07-13T07:10:26;96991.63;;;24.12;55.45
40992;BME280;29633;49.168;9.848;2023-07-13T07:12:52;96993.69;;;24.17;55.35
40992;BME280;29633;49.168;9.848;2023-07-13T07:15:18;96985.38;;;24.20;55.43
40992;BME280;29633;49.168;9.848;2023-07-13T07:17:43;96988.19;;;24.18;55.45
40992;BME280;29633;49.168;9.848;2023-07-13T07:20:10;96992.28;;;24.21;55.39
40992;BME280;29633;49.168;9.848;2023-07-13T07:22:35;96994.91;;;24.27;55.53
40992;BME280;29633;49.168;9.848;2023-07-13T07:25:01;96999.81;;;24.43;55.34
40992;BME280;29633;49.168;9.848;2023-07-13T07:27:27;96995.53;;;24.49;55.35
40992;BME280;29633;49.168;9.848;2023-07-13T07:29:53;96992.66;;;24.57;55.23
40992;BME280;29633;49.168;9.848;2023-07-13T07:32:19;96985.75;;;24.63;55.19
40992;BME280;29633;49.168;9.848;2023-07-13T07:34:45;96990.81;;;24.71;55.17
40992;BME280;29633;49.168;9.848;2023-07-13T07:37:12;96999.19;;;24.81;54.91
40992;BME280;29633;49.168;9.848;2023-07-13T07:39:38;96993.28;;;24.92;54.88
40992;BME280;29633;49.168;9.848;2023-07-13T07:42:04;96998.75;;;24.97;54.84
40992;BME280;29633;49.168;9.848;2023-07-13T07:44:33;96998.97;;;25.02;54.91
40992;BME280;29633;49.168;9.848;2023-07-13T07:46:59;97002.59;;;25.08;54.96
40992;BME280;29633;49.168;9.848;2023-07-13T07:49:25;97002.38;;;25.16;54.70
40992;BME280;29633;49.168;9.848;2023-07-13T07:51:51;97005.63;;;25.18;54.73
40992;BME280;29633;49.168;9.848;2023-07-13T07:54:17;97000.09;;;25.26;54.59
40992;BME280;29633;49.168;9.848;2023-07-13T07:56:42;97004.38;;;25.33;54.56
40992;BME280;29633;49.168;9.848;2023-07-13T07:59:08;97005.56;;;25.37;54.50
40992;BME280;29633;49.168;9.848;2023-07-13T08:01:35;97002.06;;;25.43;54.64
40992;BME280;29633;49.168;9.848;2023-07-13T08:04:01;97002.25;;;25.55;54.60
40992;BME280;29633;49.168;9.848;2023-07-13T08:06:27;97003.44;;;25.66;54.30
40992;BME280;29633;49.168;9.848;2023-07-13T08:08:53;97004.00;;;25.74;54.15
40992;BME280;29633;49.168;9.848;2023-07-13T08:11:21;97001.13;;;25.82;54.30
40992;BME280;29633;49.168;9.848;2023-07-13T08:13:47;97007.63;;;25.86;54.57
40992;BME280;29633;49.168;9.848;2023-07-13T08:16:13;97010.44;;;25.91;54.35
40992;BME280;29633;49.168;9.848;2023-07-13T08:18:38;97009.81;;;25.96;53.97
40992;BME280;29633;49.168;9.848;2023-07-13T08:21:05;96999.78;;;25.98;54.21
40992;BME280;29633;49.168;9.848;2023-07-13T08:23:31;97007.53;;;26.00;53.99
40992;BME280;29633;49.168;9.848;2023-07-13T08:25:57;97003.44;;;26.04;53.86
40992;BME280;29633;49.168;9.848;2023-07-13T08:28:24;97012.03;;;25.99;53.97
40992;BME280;29633;49.168;9.848;2023-07-13T08:30:49;97012.81;;;26.06;53.85
40992;BME280;29633;49.168;9.848;2023-07-13T08:33:17;97013.41;;;26.08;53.74
40992;BME280;29633;49.168;9.848;2023-07-13T08:35:47;97011.13;;;26.18;53.60
40992;BME280;29633;49.168;9.848;2023-07-13T08:38:13;97015.13;;;26.27;53.86
40992;BME280;29633;49.168;9.848;2023-07-13T08:40:39;97008.91;;;26.40;53.64
40992;BME280;29633;49.168;9.848;2023-07-13T08:43:09;97008.22;;;26.51;53.45
40992;BME280;29633;49.168;9.848;2023-07-13T08:46:13;97011.63;;;26.58;53.37
40992;BME280;29633;49.168;9.848;2023-07-13T08:48:46;97018.72;;;26.64;53.30
40992;BME280;29633;49.168;9.848;2023-07-13T08:54:04;97022.59;;;26.68;53.08
40992;BME280;29633;49.168;9.848;2023-07-13T08:56:32;97029.91;;;26.73;52.99
40992;BME280;29633;49.168;9.848;2023-07-13T08:59:06;97024.75;;;26.78;52.87
40992;BME280;29633;49.168;9.848;2023-07-13T09:01:47;97030.63;;;26.86;53.10
40992;BME280;29633;49.168;9.848;2023-07-13T09:04:22;97031.38;;;26.94;52.89
40992;BME280;29633;49.168;9.848;2023-07-13T09:07:00;97034.59;;;27.02;53.05
40992;BME280;29633;49.168;9.848;2023-07-13T09:09:50;97035.69;;;27.13;52.98
40992;BME280;29633;49.168;9.848;2023-07-13T09:14:48;97034.44;;;27.15;52.66
40992;BME280;29633;49.168;9.848;2023-07-13T09:20:36;97028.09;;;27.16;52.50
40992;BME280;29633;49.168;9.848;2023-07-13T09:23:05;97028.88;;;27.17;52.52
40992;BME280;29633;49.168;9.848;2023-07-13T09:25:35;97026.59;;;27.20;52.64
40992;BME280;29633;49.168;9.848;2023-07-13T09:28:10;97022.81;;;27.28;52.67
40992;BME280;29633;49.168;9.848;2023-07-13T09:33:05;97030.16;;;27.51;52.27
40992;BME280;29633;49.168;9.848;2023-07-13T09:35:31;97033.19;;;27.54;52.06
40992;BME280;29633;49.168;9.848;2023-07-13T09:37:59;97027.66;;;27.56;51.96
40992;BME280;29633;49.168;9.848;2023-07-13T09:40:35;97032.53;;;27.59;52.10
40992;BME280;29633;49.168;9.848;2023-07-13T09:43:03;97027.28;;;27.70;52.10
40992;BME280;29633;49.168;9.848;2023-07-13T09:45:33;97018.38;;;27.76;51.98
40992;BME280;29633;49.168;9.848;2023-07-13T09:48:04;97024.22;;;27.85;51.67
40992;BME280;29633;49.168;9.848;2023-07-13T09:50:30;97023.88;;;27.93;51.85
40992;BME280;29633;49.168;9.848;2023-07-13T09:52:55;97031.19;;;27.98;51.59
40992;BME280;29633;49.168;9.848;2023-07-13T09:57:50;97026.19;;;28.19;51.46
40992;BME280;29633;49.168;9.848;2023-07-13T10:00:36;97024.75;;;28.35;51.48
40992;BME280;29633;49.168;9.848;2023-07-13T10:05:39;97024.06;;;28.51;51.08
40992;BME280;29633;49.168;9.848;2023-07-13T10:08:05;97029.75;;;28.55;51.09
40992;BME280;29633;49.168;9.848;2023-07-13T10:10:32;97027.69;;;28.57;51.12
40992;BME280;29633;49.168;9.848;2023-07-13T10:12:58;97028.50;;;28.57;51.35
40992;BME280;29633;49.168;9.848;2023-07-13T10:15:24;97026.25;;;28.54;51.36
40992;BME280;29633;49.168;9.848;2023-07-13T10:17:52;97031.97;;;28.58;51.06
40992;BME280;29633;49.168;9.848;2023-07-13T10:20:18;97037.75;;;28.66;51.21
40992;BME280;29633;49.168;9.848;2023-07-13T10:23:00;97031.53;;;28.72;51.18
40992;BME280;29633;49.168;9.848;2023-07-13T10:25:30;97029.94;;;28.83;51.46
40992;BME280;29633;49.168;9.848;2023-07-13T10:28:04;97029.34;;;28.81;51.15
40992;BME280;29633;49.168;9.848;2023-07-13T10:30:34;97029.13;;;28.82;50.80
40992;BME280;29633;49.168;9.848;2023-07-13T10:33:02;97024.69;;;28.88;50.77
40992;BME280;29633;49.168;9.848;2023-07-13T10:35:30;97025.72;;;28.99;50.61
40992;BME280;29633;49.168;9.848;2023-07-13T10:43:22;97036.41;;;29.22;50.80
40992;BME280;29633;49.168;9.848;2023-07-13T10:45:49;97033.84;;;29.27;50.46
40992;BME280;29633;49.168;9.848;2023-07-13T10:48:16;97034.69;;;29.27;50.88
40992;BME280;29633;49.168;9.848;2023-07-13T10:50:44;97035.13;;;29.24;50.38
40992;BME280;29633;49.168;9.848;2023-07-13T10:53:33;97031.75;;;29.17;50.44
40992;BME280;29633;49.168;9.848;2023-07-13T10:56:04;97036.63;;;29.20;50.32
40992;BME280;29633;49.168;9.848;2023-07-13T10:58:38;97021.75;;;29.24;50.43
40992;BME280;29633;49.168;9.848;2023-07-13T11:01:13;97025.50;;;29.35;50.64
40992;BME280;29633;49.168;9.848;2023-07-13T11:06:11;97023.97;;;29.51;50.03
40992;BME280;29633;49.168;9.848;2023-07-13T11:08:54;97022.66;;;29.53;50.32
40992;BME280;29633;49.168;9.848;2023-07-13T11:13:58;97018.69;;;29.56;49.96
40992;BME280;29633;49.168;9.848;2023-07-13T11:18:50;97019.97;;;29.65;50.00
40992;BME280;29633;49.168;9.848;2023-07-13T11:21:25;97020.78;;;29.65;49.86
40992;BME280;29633;49.168;9.848;2023-07-13T11:24:15;97022.28;;;29.61;49.89
40992;BME280;29633;49.168;9.848;2023-07-13T11:29:32;97014.41;;;29.55;49.92
40992;BME280;29633;49.168;9.848;2023-07-13T11:32:10;97018.94;;;29.54;49.69
40992;BME280;29633;49.168;9.848;2023-07-13T11:34:46;97012.69;;;29.49;49.81
40992;BME280;29633;49.168;9.848;2023-07-13T11:37:13;97009.06;;;29.55;49.49
40992;BME280;29633;49.168;9.848;2023-07-13T11:39:42;97011.59;;;29.61;49.71
40992;BME280;29633;49.168;9.848;2023-07-13T11:42:13;97010.09;;;29.65;49.42
40992;BME280;29633;49.168;9.848;2023-07-13T11:44:49;97005.94;;;29.58;49.11
40992;BME280;29633;49.168;9.848;2023-07-13T11:47:20;97006.16;;;29.56;49.11
40992;BME280;29633;49.168;9.848;2023-07-13T11:49:53;97005.94;;;29.58;49.09
40992;BME280;29633;49.168;9.848;2023-07-13T11:52:39;97007.47;;;29.42;48.82
40992;BME280;29633;49.168;9.848;2023-07-13T11:55:14;97013.50;;;29.38;48.93
40992;BME280;29633;49.168;9.848;2023-07-13T11:57:47;97010.63;;;29.39;48.88
40992;BME280;29633;49.168;9.848;2023-07-13T12:00:21;97008.84;;;29.45;49.19
40992;BME280;29633;49.168;9.848;2023-07-13T12:02:48;97006.66;;;29.42;48.67
40992;BME280;29633;49.168;9.848;2023-07-13T12:05:17;97020.00;;;29.42;49.05
40992;BME280;29633;49.168;9.848;2023-07-13T12:07:43;97019.19;;;29.41;48.39
40992;BME280;29633;49.168;9.848;2023-07-13T12:10:23;97019.19;;;29.41;48.79
40992;BME280;29633;49.168;9.848;2023-07-13T12:12:57;97018.28;;;29.36;48.69
40992;BME280;29633;49.168;9.848;2023-07-13T12:15:36;97016.44;;;29.36;48.62
40992;BME280;29633;49.168;9.848;2023-07-13T12:18:02;97012.13;;;29.35;48.88
40992;BME280;29633;49.168;9.848;2023-07-13T12:20:33;97015.41;;;29.37;48.73
40992;BME280;29633;49.168;9.848;2023-07-13T12:23:00;97013.41;;;29.44;48.61
40992;BME280;29633;49.168;9.848;2023-07-13T12:25:28;97011.41;;;29.51;48.50
40992;BME280;29633;49.168;9.848;2023-07-13T12:27:53;97012.22;;;29.52;48.79
40992;BME280;29633;49.168;9.848;2023-07-13T12:30:30;97011.06;;;29.48;48.45
40992;BME280;29633;49.168;9.848;2023-07-13T12:33:11;97012.22;;;29.52;48.45
40992;BME280;29633;49.168;9.848;2023-07-13T12:35:55;97010.69;;;29.56;48.17
40992;BME280;29633;49.168;9.848;2023-07-13T12:38:21;97002.78;;;29.61;48.06
40992;BME280;29633;49.168;9.848;2023-07-13T12:40:50;97007.75;;;29.69;47.98
40992;BME280;29633;49.168;9.848;2023-07-13T12:43:16;97008.97;;;29.78;47.99
40992;BME280;29633;49.168;9.848;2023-07-13T12:45:56;97009.44;;;29.87;48.26
40992;BME280;29633;49.168;9.848;2023-07-13T12:48:21;97011.75;;;29.95;48.26
40992;BME280;29633;49.168;9.848;2023-07-13T12:50:48;97006.41;;;29.95;48.19
40992;BME280;29633;49.168;9.848;2023-07-13T12:53:19;97003.47;;;29.96;47.72
40992;BME280;29633;49.168;9.848;2023-07-13T12:55:56;96999.94;;;30.07;47.94
40992;BME280;29633;49.168;9.848;2023-07-13T12:58:36;97000.25;;;30.11;47.83
40992;BME280;29633;49.168;9.848;2023-07-13T13:01:02;97005.88;;;30.09;47.93
40992;BME280;29633;49.168;9.848;2023-07-13T13:03:39;97007.94;;;30.07;48.04
40992;BME280;29633;49.168;9.848;2023-07-13T13:08:48;96996.66;;;29.89;47.85
40992;BME280;29633;49.168;9.848;2023-07-13T13:11:18;96993.84;;;29.95;47.78
40992;BME280;29633;49.168;9.848;2023-07-13T13:13:45;96993.59;;;29.97;47.74
40992;BME280;29633;49.168;9.848;2023-07-13T13:16:17;96987.53;;;30.01;47.46
40992;BME280;29633;49.168;9.848;2023-07-13T13:18:44;96989.50;;;30.06;47.60
40992;BME280;29633;49.168;9.848;2023-07-13T13:21:10;96985.59;;;30.13;47.47
40992;BME280;29633;49.168;9.848;2023-07-13T13:23:36;96987.88;;;30.21;46.95
40992;BME280;29633;49.168;9.848;2023-07-13T13:26:03;96994.34;;;30.25;47.08
40992;BME280;29633;49.168;9.848;2023-07-13T13:28:31;96986.09;;;30.27;46.79
40992;BME280;29633;49.168;9.848;2023-07-13T13:30:57;96987.09;;;30.38;47.12
40992;BME280;29633;49.168;9.848;2023-07-13T13:33:23;96989.13;;;30.47;46.80
40992;BME280;29633;49.168;9.848;2023-07-13T13:35:49;96995.72;;;30.56;47.15
40992;BME280;29633;49.168;9.848;2023-07-13T13:38:26;97003.56;;;30.63;46.96
40992;BME280;29633;49.168;9.848;2023-07-13T13:40:52;96997.50;;;30.67;46.73